createdAt,value
2019-01-05T00:01:27.543Z,7.88
2019-01-05T00:04:15.633Z,7.92
2019-01-05T00:07:22.979Z,7.96
2019-01-05T00:10:30.228Z,7.99
2019-01-05T00:13:18.778Z,8.00
2019-01-05T00:16:27.257Z,7.99
2019-01-05T00:19:34.618Z,8.00
2019-01-05T00:22:43.916Z,8.01
2019-01-05T00:25:33.346Z,7.96
2019-01-05T00:28:41.849Z,7.94
2019-01-05T00:31:49.108Z,7.92
2019-01-05T00:34:59.622Z,7.91
2019-01-05T00:38:08.635Z,7.91
2019-01-05T00:41:17.352Z,7.91
2019-01-05T00:44:26.122Z,7.89
2019-01-05T00:47:34.850Z,7.90
2019-01-05T00:50:43.905Z,7.90
2019-01-05T00:53:52.387Z,7.91
2019-01-05T00:57:01.120Z,7.92
2019-01-05T01:00:09.883Z,7.92
2019-01-05T01:03:18.609Z,7.91
2019-01-05T01:06:27.330Z,7.87
2019-01-05T01:09:34.692Z,7.88
2019-01-05T01:12:22.659Z,7.92
2019-01-05T01:18:25.968Z,7.91
2019-01-05T01:21:14.233Z,7.86
2019-01-05T01:24:23.057Z,7.84
2019-01-05T01:27:31.843Z,7.82
2019-01-05T01:30:40.578Z,7.76
2019-01-05T01:33:49.312Z,7.73
2019-01-05T01:36:58.305Z,7.65
2019-01-05T01:43:02.299Z,7.65
2019-01-05T01:46:11.030Z,7.66
2019-01-05T01:52:28.428Z,7.70
2019-01-05T01:55:36.939Z,7.64
2019-01-05T01:58:45.675Z,7.70
2019-01-05T02:01:54.456Z,7.62
2019-01-05T02:05:03.274Z,7.59
2019-01-05T02:08:11.993Z,7.59
2019-01-05T02:11:22.213Z,7.57
2019-01-05T02:14:30.693Z,7.57
2019-01-05T02:24:33.344Z,7.59
2019-01-05T02:27:59.522Z,7.55
2019-01-05T02:31:14.308Z,7.55
2019-01-05T02:34:40.796Z,7.56
2019-01-05T02:37:54.880Z,7.61
2019-01-05T02:41:21.018Z,7.56
2019-01-05T02:44:47.398Z,7.55
2019-01-05T02:48:13.558Z,7.60
2019-01-05T02:51:28.036Z,7.58
2019-01-05T02:58:12.292Z,7.61
2019-01-05T03:01:38.415Z,7.60
2019-01-05T03:04:51.799Z,7.61
2019-01-05T03:08:17.917Z,7.64
2019-01-05T03:11:44.044Z,7.62
2019-01-05T03:21:50.654Z,7.60
2019-01-05T03:25:16.787Z,7.58
2019-01-05T03:28:43.146Z,7.56
2019-01-05T03:32:09.278Z,7.59
2019-01-05T03:35:35.672Z,7.62
2019-01-05T03:39:01.886Z,7.64
2019-01-05T03:42:28.002Z,7.66
2019-01-05T03:45:54.127Z,7.66
2019-01-05T03:49:20.245Z,7.66
2019-01-05T03:52:34.740Z,7.63
2019-01-05T03:59:22.172Z,7.65
2019-01-05T04:02:46.535Z,7.60
2019-01-05T04:06:12.668Z,7.59
2019-01-05T04:13:10.920Z,7.58
2019-01-05T04:16:37.065Z,7.66
2019-01-05T04:20:03.177Z,7.43
2019-01-05T04:23:29.337Z,7.34
2019-01-05T04:26:59.120Z,7.31
2019-01-05T04:30:16.968Z,7.26
2019-01-05T04:33:55.175Z,7.28
2019-01-05T04:40:41.178Z,7.31
2019-01-05T04:47:29.399Z,7.27
2019-01-05T04:50:55.540Z,7.28
2019-01-05T04:54:18.236Z,7.26
2019-01-05T04:57:44.351Z,7.19
2019-01-05T05:01:10.465Z,7.21
2019-01-05T05:04:36.592Z,7.16
2019-01-05T05:08:02.727Z,7.15
2019-01-05T05:11:28.842Z,7.13
2019-01-05T05:14:55.015Z,7.09
2019-01-05T05:18:21.176Z,7.13
2019-01-05T05:21:35.471Z,7.08
2019-01-05T05:25:01.850Z,7.02
2019-01-05T05:28:15.361Z,7.02
2019-01-05T05:31:41.505Z,6.99
2019-01-05T05:35:04.075Z,7.00
2019-01-05T05:38:30.456Z,7.02
2019-01-05T05:41:56.572Z,6.96
2019-01-05T05:45:20.739Z,6.96
2019-01-05T05:52:19.488Z,6.86
2019-01-05T05:55:45.644Z,6.88
2019-01-05T05:59:11.789Z,6.84
2019-01-05T06:09:32.720Z,6.87
2019-01-05T06:12:58.837Z,6.85
2019-01-05T06:16:27.832Z,6.79
2019-01-05T06:19:53.961Z,6.79
2019-01-05T06:26:56.831Z,6.75
2019-01-05T06:30:10.877Z,6.74
2019-01-05T06:33:22.736Z,6.73
2019-01-05T06:36:46.148Z,6.77
2019-01-05T06:40:08.867Z,6.78
2019-01-05T06:43:35.024Z,6.87
2019-01-05T06:47:01.151Z,6.85
2019-01-05T06:50:27.272Z,6.81
2019-01-05T06:53:53.399Z,6.81
2019-01-05T06:57:19.527Z,6.68
2019-01-05T07:00:45.673Z,6.63
2019-01-05T07:04:11.831Z,6.60
2019-01-05T07:07:29.676Z,6.55
2019-01-05T07:10:55.825Z,6.62
2019-01-05T07:14:24.784Z,6.55
2019-01-05T07:17:50.933Z,6.59
2019-01-05T07:21:17.049Z,6.63
2019-01-05T07:24:45.986Z,6.63
2019-01-05T07:28:02.339Z,6.66
2019-01-05T07:31:28.491Z,6.67
2019-01-05T07:34:54.871Z,6.71
2019-01-05T07:38:21.023Z,6.77
2019-01-05T07:41:42.662Z,6.80
2019-01-05T07:45:06.351Z,6.86
2019-01-05T07:48:32.464Z,6.89
2019-01-05T07:51:58.596Z,6.95
2019-01-05T07:55:24.724Z,7.00
2019-01-05T07:58:50.866Z,7.03
2019-01-05T08:02:25.693Z,7.06
2019-01-05T08:05:51.826Z,7.06
2019-01-05T08:09:06.627Z,7.06
2019-01-05T08:12:32.751Z,7.07
2019-01-05T08:15:58.900Z,7.08
2019-01-05T08:19:25.266Z,7.11
2019-01-05T08:22:51.422Z,7.09
2019-01-05T08:26:20.375Z,7.12
2019-01-05T08:29:39.385Z,7.17
2019-01-05T08:36:26.930Z,7.20
2019-01-05T08:39:36.336Z,7.20
2019-01-05T08:43:02.497Z,7.22
2019-01-05T08:46:28.633Z,7.24
2019-01-05T08:49:45.382Z,7.32
2019-01-05T08:53:11.517Z,7.36
2019-01-05T08:59:58.995Z,7.45
2019-01-05T09:03:14.413Z,7.49
2019-01-05T09:06:40.583Z,7.49
2019-01-05T09:10:06.700Z,7.51
2019-01-05T09:13:32.824Z,7.52
2019-01-05T09:16:59.199Z,7.52
2019-01-05T09:23:57.111Z,7.57
2019-01-05T09:27:23.224Z,7.61
2019-01-05T09:30:49.354Z,7.66
2019-01-05T09:34:15.485Z,7.71
2019-01-05T09:37:41.607Z,7.73
2019-01-05T09:41:07.979Z,7.78
2019-01-05T09:44:27.530Z,7.82
2019-01-05T09:47:53.658Z,7.84
2019-01-05T09:51:19.789Z,7.87
2019-01-05T09:54:45.937Z,7.93
2019-01-05T09:58:12.053Z,8.01
2019-01-05T10:01:26.652Z,8.03
2019-01-05T10:04:52.764Z,8.11
2019-01-05T10:08:19.184Z,8.18
2019-01-05T10:11:45.595Z,8.24
2019-01-05T10:15:11.771Z,8.29
2019-01-05T10:18:37.889Z,8.37
2019-01-05T10:22:04.015Z,8.48
2019-01-05T10:25:30.144Z,8.55
2019-01-05T10:28:56.507Z,8.62
2019-01-05T10:32:22.718Z,8.69
2019-01-05T10:35:48.866Z,8.76
2019-01-05T10:39:14.982Z,8.81
2019-01-05T10:42:41.139Z,9.04
2019-01-05T10:46:07.288Z,8.95
2019-01-05T10:49:33.651Z,8.80
2019-01-05T10:52:46.791Z,8.82
2019-01-05T10:56:13.171Z,8.82
2019-01-05T10:59:39.544Z,8.91
2019-01-05T11:02:58.161Z,9.04
2019-01-05T11:06:13.290Z,8.92
2019-01-05T11:12:58.857Z,8.87
2019-01-05T11:19:52.688Z,8.92
2019-01-05T11:23:18.813Z,8.93
2019-01-05T11:26:44.934Z,8.95
2019-01-05T11:30:11.383Z,8.99
2019-01-05T11:33:37.543Z,9.04
2019-01-05T11:37:03.650Z,9.10
2019-01-05T11:40:29.784Z,9.18
2019-01-05T11:43:55.954Z,9.23
2019-01-05T11:47:22.153Z,9.30
2019-01-05T11:50:48.276Z,9.37
2019-01-05T11:54:14.521Z,9.40
2019-01-05T11:57:43.423Z,9.43
2019-01-05T12:01:01.853Z,9.49
2019-01-05T12:07:50.940Z,9.58
2019-01-05T12:11:13.620Z,9.64
2019-01-05T12:14:37.187Z,9.64
2019-01-05T12:18:03.316Z,9.65
2019-01-05T12:24:54.482Z,9.71
2019-01-05T12:28:18.964Z,9.72
2019-01-05T12:31:45.339Z,9.77
2019-01-05T12:38:45.259Z,9.83
2019-01-05T12:45:35.130Z,9.86
2019-01-05T12:49:01.302Z,9.91
2019-01-05T12:52:27.427Z,9.93
2019-01-05T12:55:53.593Z,9.95
2019-01-05T12:59:18.339Z,9.95
2019-01-05T13:02:44.740Z,9.97
2019-01-05T13:05:58.763Z,9.98
2019-01-05T13:13:02.953Z,10.01
2019-01-05T13:16:29.116Z,10.03
2019-01-05T13:23:15.188Z,10.06
2019-01-05T13:26:41.381Z,10.05
2019-01-05T13:29:57.189Z,10.08
2019-01-05T13:33:23.316Z,10.14
2019-01-05T13:36:49.455Z,10.13
2019-01-05T13:40:15.835Z,10.14
2019-01-05T13:43:41.966Z,10.15
2019-01-05T13:47:08.113Z,10.15
2019-01-05T13:53:55.470Z,10.09
2019-01-05T13:57:04.956Z,10.11
2019-01-05T14:00:12.588Z,10.11
2019-01-05T14:03:00.493Z,10.12
2019-01-05T14:06:07.414Z,10.15
2019-01-05T14:11:50.775Z,10.17
2019-01-05T14:14:38.905Z,10.18
2019-01-05T14:17:26.739Z,10.23
2019-01-05T14:20:33.752Z,10.25
2019-01-05T14:23:21.762Z,10.27
2019-01-05T14:26:09.581Z,10.24
2019-01-05T14:29:16.872Z,10.37
2019-01-05T14:32:05.027Z,10.27
2019-01-05T14:34:53.507Z,10.23
2019-01-05T14:38:01.051Z,10.20
2019-01-05T14:40:49.557Z,10.28
2019-01-05T14:43:37.968Z,10.22
2019-01-05T14:46:45.341Z,10.25
2019-01-05T14:49:52.631Z,10.26
2019-01-05T14:52:52.697Z,10.22
2019-01-05T14:55:59.618Z,10.20
2019-01-05T14:58:47.438Z,10.24
2019-01-05T15:01:54.956Z,10.23
2019-01-05T15:05:02.239Z,10.28
2019-01-05T15:07:50.416Z,10.24
2019-01-05T15:10:57.392Z,10.19
2019-01-05T15:13:45.788Z,10.12
2019-01-05T15:16:33.953Z,10.19
2019-01-05T15:19:21.842Z,10.14
2019-01-05T15:22:10.012Z,10.16
2019-01-05T15:24:58.164Z,10.11
2019-01-05T15:27:45.988Z,10.09
2019-01-05T15:30:52.934Z,10.16
2019-01-05T15:33:40.750Z,10.15
2019-01-05T15:36:48.034Z,10.16
2019-01-05T15:39:35.887Z,10.20
2019-01-05T15:42:43.149Z,10.23
2019-01-05T15:45:31.038Z,10.31
2019-01-05T15:48:18.887Z,10.26
2019-01-05T15:51:06.716Z,10.30
2019-01-05T15:53:54.875Z,10.26
2019-01-05T15:56:43.350Z,10.27
2019-01-05T15:59:31.244Z,10.25
2019-01-05T16:02:19.700Z,10.28
2019-01-05T16:05:07.593Z,10.26
2019-01-05T16:08:14.883Z,10.27
2019-01-05T16:11:02.981Z,10.26
2019-01-05T16:13:50.814Z,10.30
2019-01-05T16:16:38.714Z,10.31
2019-01-05T16:19:45.990Z,10.33
2019-01-05T16:22:53.368Z,10.33
2019-01-05T16:25:41.254Z,10.38
2019-01-05T16:28:23.358Z,10.38
2019-01-05T16:31:11.261Z,10.41
2019-01-05T16:34:15.816Z,10.44
2019-01-05T16:37:03.990Z,10.47
2019-01-05T16:40:10.960Z,10.49
2019-01-05T16:43:17.922Z,10.48
2019-01-05T16:45:59.736Z,10.53
2019-01-05T16:48:47.908Z,10.52
2019-01-05T16:51:35.801Z,10.49
2019-01-05T16:54:23.878Z,10.44
2019-01-05T16:57:11.702Z,10.46
2019-01-05T16:59:59.765Z,10.53
2019-01-05T17:02:47.907Z,10.51
2019-01-05T17:05:35.863Z,10.56
2019-01-05T17:08:43.124Z,10.48
2019-01-05T17:11:31.018Z,10.45
2019-01-05T17:14:19.527Z,10.47
2019-01-05T17:17:26.714Z,10.50
2019-01-05T17:20:15.046Z,10.54
2019-01-05T17:22:58.644Z,10.56
2019-01-05T17:25:46.760Z,10.53
2019-01-05T17:28:35.120Z,10.61
2019-01-05T17:31:22.984Z,10.53
2019-01-05T17:34:20.980Z,10.47
2019-01-05T17:37:09.229Z,10.32
2019-01-05T17:39:51.557Z,10.45
2019-01-05T17:42:39.879Z,10.41
2019-01-05T17:45:46.878Z,10.39
2019-01-05T17:48:34.701Z,10.42
2019-01-05T17:51:47.258Z,10.44
2019-01-05T17:54:31.901Z,10.37
2019-01-05T17:57:19.732Z,10.32
2019-01-05T18:00:08.257Z,10.26
2019-01-05T18:02:56.092Z,10.32
2019-01-05T18:05:44.012Z,10.21
2019-01-05T18:08:51.271Z,10.26
2019-01-05T18:11:39.186Z,10.15
2019-01-05T18:14:27.320Z,10.09
2019-01-05T18:17:15.501Z,10.10
2019-01-05T18:20:03.661Z,10.11
2019-01-05T18:23:10.574Z,10.14
2019-01-05T18:25:58.713Z,10.14
2019-01-05T18:28:47.310Z,10.17
2019-01-05T18:31:35.510Z,10.12
2019-01-05T18:34:23.654Z,10.14
2019-01-05T18:37:31.071Z,10.15
2019-01-05T18:40:38.283Z,10.15
2019-01-05T18:43:26.530Z,10.17
2019-01-05T18:46:33.446Z,10.16
2019-01-05T18:49:21.791Z,10.20
2019-01-05T18:52:10.986Z,10.26
2019-01-05T18:54:59.532Z,10.21
2019-01-05T18:58:07.064Z,10.19
2019-01-05T19:01:14.059Z,10.22
2019-01-05T19:04:02.131Z,10.19
2019-01-05T19:07:03.629Z,10.28
2019-01-05T19:09:51.954Z,10.36
2019-01-05T19:12:59.260Z,10.29
2019-01-05T19:15:47.128Z,10.25
2019-01-05T19:21:24.720Z,10.27
2019-01-05T19:24:12.649Z,10.29
2019-01-05T19:27:00.442Z,10.31
2019-01-05T19:29:48.344Z,10.32
2019-01-05T19:32:36.168Z,10.31
2019-01-05T19:35:24.289Z,10.30
2019-01-05T19:38:12.670Z,10.31
2019-01-05T19:41:00.519Z,10.32
2019-01-05T19:43:48.649Z,10.31
2019-01-05T19:46:55.688Z,10.35
2019-01-05T19:50:03.226Z,10.39
2019-01-05T19:53:10.248Z,10.41
2019-01-05T19:55:58.081Z,10.44
2019-01-05T19:58:45.895Z,10.45
2019-01-05T20:01:33.799Z,10.46
2019-01-05T20:04:40.761Z,10.49
2019-01-05T20:07:48.014Z,10.49
2019-01-05T20:10:55.469Z,10.49
2019-01-05T20:13:59.095Z,10.50
2019-01-05T20:16:47.081Z,10.54
2019-01-05T20:19:34.893Z,10.54
2019-01-05T20:22:42.409Z,10.56
2019-01-05T20:25:30.480Z,10.59
2019-01-05T20:28:35.619Z,10.53
2019-01-05T20:31:42.895Z,10.51
2019-01-05T20:34:30.879Z,10.48
2019-01-05T20:37:18.712Z,10.47
2019-01-05T20:40:06.772Z,10.46
2019-01-05T20:42:54.925Z,10.49
2019-01-05T20:45:43.080Z,10.50
2019-01-05T20:48:31.228Z,10.51
2019-01-05T20:51:28.779Z,10.50
2019-01-05T20:54:16.763Z,10.49
2019-01-05T20:57:03.527Z,10.48
2019-01-05T20:59:51.654Z,10.54
2019-01-05T21:02:40.226Z,10.49
2019-01-05T21:05:28.496Z,10.46
2019-01-05T21:08:16.911Z,10.45
2019-01-05T21:11:05.287Z,10.45
2019-01-05T21:14:12.351Z,10.48
2019-01-05T21:17:21.075Z,10.45
2019-01-05T21:20:09.160Z,10.45
2019-01-05T21:23:16.388Z,10.51
2019-01-05T21:26:25.136Z,10.50
2019-01-05T21:29:33.642Z,10.50
2019-01-05T21:32:16.104Z,10.51
2019-01-05T21:35:04.320Z,10.52
2019-01-05T21:38:11.336Z,10.58
2019-01-05T21:41:00.084Z,10.59
2019-01-05T21:44:08.924Z,10.59
2019-01-05T21:46:56.750Z,10.57
2019-01-05T21:49:44.577Z,10.56
2019-01-05T21:52:32.701Z,10.52
2019-01-05T21:55:22.586Z,10.53
2019-01-05T21:58:12.508Z,10.52
2019-01-05T22:00:51.955Z,10.55
2019-01-05T22:03:38.439Z,10.55
2019-01-05T22:06:26.600Z,10.58
2019-01-05T22:09:14.702Z,10.58
2019-01-05T22:12:03.258Z,10.55
2019-01-05T22:15:10.278Z,10.57
2019-01-05T22:17:58.416Z,10.56
2019-01-05T22:21:05.428Z,10.53
2019-01-05T22:24:12.941Z,10.52
2019-01-05T22:27:01.093Z,10.51
2019-01-05T22:30:10.060Z,10.52
2019-01-05T22:32:57.880Z,10.51
2019-01-05T22:35:46.015Z,10.48
2019-01-05T22:38:34.101Z,10.50
2019-01-05T22:41:22.187Z,10.52
2019-01-05T22:44:21.672Z,10.56
2019-01-05T22:47:28.673Z,10.55
2019-01-05T22:50:36.024Z,10.56
2019-01-05T22:53:23.992Z,10.57
2019-01-05T22:56:33.018Z,10.58
2019-01-05T23:02:16.740Z,10.56
2019-01-05T23:05:23.933Z,10.56
2019-01-05T23:08:12.501Z,10.57
2019-01-05T23:11:00.406Z,10.57
2019-01-05T23:14:09.334Z,10.54
2019-01-05T23:16:57.728Z,10.53
2019-01-05T23:19:45.717Z,10.54
2019-01-05T23:22:33.703Z,10.55
2019-01-05T23:25:21.899Z,10.55
2019-01-05T23:28:10.390Z,10.56
2019-01-05T23:31:17.419Z,10.58
2019-01-05T23:34:05.234Z,10.61
2019-01-05T23:37:12.915Z,10.62
2019-01-05T23:40:00.766Z,10.65
2019-01-05T23:43:07.733Z,10.67
2019-01-05T23:46:15.275Z,10.65
2019-01-05T23:49:03.474Z,10.64
2019-01-05T23:51:51.606Z,10.59
2019-01-05T23:54:39.422Z,10.59
2019-01-05T23:57:27.564Z,10.61
